الصفحة الرئيسية
METAR-TAF:

METAR-TAF

مطار :

ماجنكا, مدغشقر

دائرة عرض: 15-40S, خط طول: 046-21E, ارتفاع: 26 متر

مراقبة الطقس الحالي

تاريخ ووقت الإصدار 24 دقيقة قبل الساعة 00:00UTC
ريح 3 عقدةمن اتجاهات متغيرة
درجة الحرارة 24°درجة مئوية
الرطوبة 94%
ضغط 1009 hPa
الرؤية 10 كم أو أكثر
غيوم قليلة على ارتفاع 2000 قدم, مزنة ركامية.
غيوم متفرقة على ارتفاع 4000 قدم

METAR: FMNM 290000Z VRB03KT 9999 FEW020CB SCT040 24/23 Q1009

زمن: 03:24 (00:24 UTC)

توقعات

تاريخ ووقت الإصدار 1ساعة و 24 دقيقة قبل الساعة 23:00UTC
التوقعات صالحة من29 الساعة 00 UTC إلى 29 الساعة 24 UTC
ريح 8 عقدة من الجنوب الشرقي
الرؤية 10 كم أو أكثر
غيوم متفرقة على ارتفاع 2000 قدم, مزنة ركامية.
غيوم متفرقة على ارتفاع 4000 قدم
نظرية الاحتمالات 30% :
مؤقت
من 29 الساعة 00 UTC إلى 29 الساعة 06 UTC
الرؤية: 4500 متر
عاصفة رعدية, مطر
أصبح
من 29 الساعة 10 UTC إلى 29 الساعة 12 UTC
ريح 10 عقدة من الشمال الغربي

TAF: FMNM 282300Z 2900/2924 14008KT 9999 SCT020CB SCT040 PROB30 TEMPO 2900/2906 4500 TSRA BECMG 2910/2912 32010KT

أرصاد الطقس والتوقعات من أكثر من 4000 مطار (تقارير الطقس للمطار METAR والتنبؤ بالطقس بالمطارTAF).

المحطات المتاحة هي النقط الصفراء والحمراء على الخريطة.

حرك المؤشر فوق النقطة لمعرفة اسم المحطة.

ثم انقر لمعرفة أرصاد وتوقعات الطقس.

لتغيير الخارطة: اضغط على الأزرار الخضراء مع رمز الصليب الأسود للتكبير. على الزر الأخضر مع شرطة للتصغير، أو على الأسهم الخضراء للخرائط المجاورة.


METAR-TAF: